Time;durP1;ratioP1;P1;durP2;ratioP2;P2;SDS_P1;SDS_P2;PMS_P1;PMS_P2;Temp;Humidity;BMP_temperature;BMP_pressure;BME280_temperature;BME280_humidity;BME280_pressure;Samples;Min_cycle;Max_cycle;Signal;HPM_P1;HPM_P2
2023/02/03 00:02:18;;;;;;;2.92;1.05;;;9.30;99.90;;;;;;20605380;28;20122;-44
2023/02/03 00:12:19;;;;;;;5.55;1.85;;;9.30;99.90;;;;;;20617195;28;20710;-44
2023/02/03 00:22:20;;;;;;;7.90;2.75;;;9.30;99.90;;;;;;20619360;28;20462;-44
2023/02/03 00:32:21;;;;;;;2.50;1.02;;;9.30;99.90;;;;;;20633171;28;20398;-44
2023/02/03 00:42:22;;;;;;;3.05;1.33;;;9.30;99.90;;;;;;20618963;28;20050;-44
2023/02/03 00:52:23;;;;;;;7.82;1.90;;;9.20;99.90;;;;;;20621132;28;20073;-44
2023/02/03 01:02:24;;;;;;;2.88;1.15;;;9.20;99.90;;;;;;20600329;28;20042;-44
2023/02/03 01:12:27;;;;;;;4.30;1.08;;;9.20;99.90;;;;;;20618500;28;20742;-44
2023/02/03 01:22:29;;;;;;;2.70;0.90;;;9.20;99.90;;;;;;20610011;28;20427;-44
2023/02/03 01:32:30;;;;;;;4.43;1.92;;;9.10;99.90;;;;;;20632195;28;20464;-44
2023/02/03 01:42:32;;;;;;;2.72;1.10;;;9.20;99.90;;;;;;20634772;28;20187;-44
2023/02/03 01:52:35;;;;;;;2.83;0.85;;;9.30;97.50;;;;;;20627432;28;20081;-43
2023/02/03 02:02:36;;;;;;;2.30;0.80;;;9.30;96.30;;;;;;20625826;28;20099;-44
2023/02/03 02:12:37;;;;;;;1.77;0.95;;;9.30;94.10;;;;;;20620590;28;20081;-43
2023/02/03 02:22:44;;;;;;;3.22;0.75;;;9.50;76.50;;;;;;20617709;28;20136;-44
2023/02/03 02:33:12;;;;;;;2.23;0.83;;;9.50;71.00;;;;;;20629507;28;20890;-44
2023/02/03 02:43:18;;;;;;;2.60;0.50;;;9.50;75.10;;;;;;20636999;28;20070;-43
2023/02/03 02:53:25;;;;;;;3.07;1.43;;;9.60;69.30;;;;;;20629530;28;20065;-43
2023/02/03 03:03:26;;;;;;;0.77;0.60;;;9.70;65.10;;;;;;20624229;28;20096;-44
2023/02/03 03:13:34;;;;;;;5.57;0.65;;;9.70;64.60;;;;;;20615519;28;20232;-44
2023/02/03 03:23:38;;;;;;;2.85;0.90;;;9.70;67.10;;;;;;20607389;28;20049;-43
2023/02/03 03:33:40;;;;;;;5.45;1.40;;;9.80;58.50;;;;;;20611482;28;20115;-41
2023/02/03 03:43:43;;;;;;;6.07;0.60;;;9.80;56.00;;;;;;20619972;28;20152;-42
2023/02/03 03:53:47;;;;;;;2.92;0.40;;;9.80;59.10;;;;;;20620183;28;20863;-44
2023/02/03 04:03:54;;;;;;;1.60;0.47;;;9.90;58.80;;;;;;20619483;28;20041;-44
2023/02/03 04:13:55;;;;;;;5.38;1.15;;;9.90;56.10;;;;;;20618296;28;20043;-44
2023/02/03 04:23:56;;;;;;;8.60;1.77;;;9.90;57.10;;;;;;20614640;28;20628;-44
2023/02/03 04:33:57;;;;;;;3.17;0.55;;;9.90;60.30;;;;;;20631805;28;20442;-44
2023/02/03 04:43:58;;;;;;;8.00;1.50;;;9.90;60.00;;;;;;20633330;28;20665;-45
2023/02/03 04:53:59;;;;;;;3.20;0.60;;;9.70;72.00;;;;;;20621858;28;20568;-44
2023/02/03 05:04:00;;;;;;;6.47;0.52;;;9.80;67.20;;;;;;20631148;28;20278;-44
2023/02/03 05:14:01;;;;;;;4.00;0.57;;;9.80;65.60;;;;;;20633161;28;20365;-44
2023/02/03 05:24:05;;;;;;;1.88;0.80;;;9.80;66.00;;;;;;20622815;28;20057;-44
2023/02/03 05:34:06;;;;;;;1.65;0.73;;;9.80;69.50;;;;;;20620053;28;20320;-44
2023/02/03 05:44:07;;;;;;;14.27;1.45;;;9.80;67.10;;;;;;20621012;28;20510;-44
2023/02/03 05:54:09;;;;;;;3.42;1.30;;;9.70;69.40;;;;;;20620058;28;20121;-44
2023/02/03 06:04:10;;;;;;;2.92;1.05;;;9.70;71.10;;;;;;20615752;28;20039;-44
2023/02/03 06:14:11;;;;;;;1.40;0.45;;;9.70;68.80;;;;;;20614679;28;22126;-44
2023/02/03 06:24:12;;;;;;;3.47;1.27;;;9.60;76.00;;;;;;20599155;28;20180;-44
2023/02/03 06:34:13;;;;;;;5.88;1.08;;;9.70;77.40;;;;;;20625554;28;20065;-44
2023/02/03 06:44:14;;;;;;;2.75;1.17;;;9.60;88.80;;;;;;20632489;28;20054;-44
2023/02/03 06:54:15;;;;;;;3.53;0.93;;;9.70;72.80;;;;;;20632605;28;20061;-44
2023/02/03 07:04:17;;;;;;;2.83;0.70;;;9.60;87.60;;;;;;20628196;28;20042;-44
2023/02/03 07:14:17;;;;;;;3.65;1.25;;;9.60;84.60;;;;;;20619498;28;20109;-44
2023/02/03 07:24:18;;;;;;;5.55;2.10;;;9.60;90.40;;;;;;20611836;28;20160;-44
2023/02/03 07:34:20;;;;;;;1.55;0.57;;;9.60;92.20;;;;;;20604697;28;20429;-44
2023/02/03 07:44:20;;;;;;;6.05;1.58;;;9.50;97.20;;;;;;20618221;28;20319;-44
2023/02/03 07:54:21;;;;;;;2.78;1.23;;;9.50;98.40;;;;;;20610713;28;20154;-44
2023/02/03 08:04:23;;;;;;;7.38;1.80;;;9.60;98.60;;;;;;20612786;28;20046;-44
2023/02/03 08:14:24;;;;;;;2.83;1.10;;;9.60;99.90;;;;;;20627560;28;20206;-44
2023/02/03 08:24:25;;;;;;;5.88;1.25;;;9.60;99.90;;;;;;20625466;28;20122;-44
2023/02/03 08:34:26;;;;;;;2.03;0.60;;;9.60;99.90;;;;;;20640494;28;20129;-44
2023/02/03 08:44:27;;;;;;;3.80;1.10;;;9.80;99.90;;;;;;20634325;28;20135;-44
2023/02/03 08:54:28;;;;;;;1.65;0.65;;;9.90;97.20;;;;;;20629657;28;20054;-44
2023/02/03 09:04:29;;;;;;;18.38;1.95;;;9.90;98.90;;;;;;20618829;28;20079;-44
2023/02/03 09:14:32;;;;;;;15.15;1.50;;;10.00;97.20;;;;;;20625287;28;20038;-44
2023/02/03 09:24:33;;;;;;;3.35;0.82;;;10.10;93.90;;;;;;20627143;28;20095;-44
2023/02/03 09:34:34;;;;;;;2.97;0.80;;;10.20;94.00;;;;;;20630780;28;20184;-44
2023/02/03 09:44:40;;;;;;;2.33;0.43;;;10.30;89.90;;;;;;20633771;28;20128;-44
2023/02/03 09:55:25;;;;;;;7.07;2.03;;;10.40;83.20;;;;;;20623379;28;20614;-44
2023/02/03 10:05:31;;;;;;;7.45;1.88;;;10.40;82.00;;;;;;20549106;28;20108;-44
2023/02/03 10:15:57;;;;;;;3.63;1.43;;;10.50;73.60;;;;;;20632767;28;20152;-44
2023/02/03 10:26:04;;;;;;;6.00;1.30;;;10.50;75.80;;;;;;20610302;28;20126;-44
2023/02/03 10:36:17;;;;;;;2.33;1.02;;;10.50;75.90;;;;;;20615332;28;20117;-44
2023/02/03 10:46:32;;;;;;;3.28;1.38;;;10.50;79.00;;;;;;20617591;28;20145;-44
2023/02/03 10:56:37;;;;;;;3.65;1.35;;;10.50;74.50;;;;;;20618381;28;20136;-44
2023/02/03 11:06:55;;;;;;;5.25;1.58;;;10.60;75.90;;;;;;20633312;28;20927;-44
2023/02/03 11:16:56;;;;;;;1.67;0.70;;;10.60;76.60;;;;;;20632201;28;21591;-44
2023/02/03 11:27:05;;;;;;;2.70;0.93;;;10.70;76.70;;;;;;20651567;28;20034;-44
2023/02/03 11:37:26;;;;;;;1.67;0.65;;;10.80;72.70;;;;;;20627498;28;20189;-44
2023/02/03 11:47:27;;;;;;;8.48;1.17;;;10.80;69.40;;;;;;20565375;28;20042;-44
2023/02/03 11:57:33;;;;;;;1.98;0.47;;;10.80;70.50;;;;;;20612372;28;20192;-44
2023/02/03 12:08:13;;;;;;;2.90;1.23;;;10.90;69.50;;;;;;20633960;28;20058;-44
2023/02/03 12:18:32;;;;;;;3.00;1.13;;;10.80;75.20;;;;;;20635916;28;20332;-44
2023/02/03 12:28:44;;;;;;;1.55;0.73;;;10.70;73.70;;;;;;20616274;28;20053;-44
2023/02/03 12:39:08;;;;;;;1.55;0.70;;;10.60;87.80;;;;;;20638640;28;20900;-44
2023/02/03 12:49:17;;;;;;;2.80;0.90;;;10.40;99.90;;;;;;20611560;28;20049;-44
2023/02/03 12:59:22;;;;;;;5.75;1.23;;;10.20;99.90;;;;;;20636161;28;20117;-44
2023/02/03 13:09:37;;;;;;;4.63;1.60;;;10.10;99.90;;;;;;20629653;28;20558;-44
2023/02/03 13:19:43;;;;;;;2.53;0.93;;;9.90;99.90;;;;;;20630380;28;22170;-44
2023/02/03 13:30:00;;;;;;;4.10;1.40;;;9.90;99.90;;;;;;20629250;28;21236;-44
2023/02/03 13:40:28;;;;;;;3.20;1.13;;;10.10;99.90;;;;;;20615815;28;20046;-44
2023/02/03 13:50:30;;;;;;;8.93;1.17;;;10.00;99.90;;;;;;20604025;28;20251;-44
2023/02/03 14:00:43;;;;;;;8.75;1.48;;;10.00;99.90;;;;;;20618360;28;20033;-44
2023/02/03 14:10:44;;;;;;;14.63;1.98;;;10.10;99.90;;;;;;20617798;28;20413;-44
2023/02/03 14:20:50;;;;;;;8.68;2.17;;;10.10;99.90;;;;;;20620321;28;20149;-44
2023/02/03 14:31:01;;;;;;;5.10;1.17;;;10.00;99.90;;;;;;20626887;28;20066;-44
2023/02/03 14:41:04;;;;;;;14.32;2.20;;;10.00;99.90;;;;;;20621892;28;20643;-44
2023/02/03 14:51:34;;;;;;;6.82;1.70;;;10.00;99.90;;;;;;20615889;28;20120;-44
2023/02/03 15:01:34;;;;;;;4.07;1.38;;;10.00;99.90;;;;;;20622357;28;21119;-44
2023/02/03 15:11:45;;;;;;;5.47;1.77;;;9.90;99.90;;;;;;20579092;28;20133;-44
2023/02/03 15:21:46;;;;;;;7.20;2.08;;;9.90;99.90;;;;;;20612048;28;20977;-44
2023/02/03 15:31:54;;;;;;;11.80;1.60;;;9.80;99.90;;;;;;20617464;28;20454;-44
2023/02/03 15:41:57;;;;;;;8.57;2.75;;;9.80;99.90;;;;;;20634969;28;20150;-44
2023/02/03 15:52:06;;;;;;;3.22;1.38;;;9.70;99.90;;;;;;20626412;28;20107;-43
2023/02/03 16:02:19;;;;;;;4.57;1.30;;;9.60;99.90;;;;;;20576359;28;20038;-44
2023/02/03 16:12:22;;;;;;;5.07;1.10;;;9.60;99.90;;;;;;20624908;28;20320;-44
2023/02/03 16:22:35;;;;;;;8.88;3.05;;;9.40;99.90;;;;;;20622127;28;20149;-44
2023/02/03 16:53:31;;;;;;;2.65;0.95;;;9.20;99.90;;;;;;20633228;28;20472;-42
2023/02/03 17:03:34;;;;;;;3.08;1.05;;;9.10;99.90;;;;;;20653332;28;20053;-42
2023/02/03 17:13:35;;;;;;;3.80;1.88;;;9.10;99.90;;;;;;20646133;28;20123;-42
2023/02/03 17:23:37;;;;;;;5.18;1.73;;;9.00;99.90;;;;;;20605015;28;20861;-42
2023/02/03 17:33:39;;;;;;;4.95;2.42;;;9.00;99.90;;;;;;20631801;28;20164;-42
2023/02/03 17:43:40;;;;;;;7.75;2.10;;;8.90;99.90;;;;;;20582123;28;20853;-42
2023/02/03 17:53:42;;;;;;;2.78;1.50;;;8.80;96.20;;;;;;20576300;28;20107;-43
2023/02/03 18:03:44;;;;;;;5.18;1.70;;;8.80;71.10;;;;;;20629126;28;20140;-43
2023/02/03 18:13:47;;;;;;;4.05;1.35;;;8.80;67.00;;;;;;20633355;28;20518;-43
2023/02/03 18:23:50;;;;;;;4.63;2.17;;;8.80;74.80;;;;;;20629680;28;20106;-43
2023/02/03 18:33:51;;;;;;;18.15;2.78;;;8.70;68.90;;;;;;20631381;28;20530;-43
2023/02/03 18:43:52;;;;;;;3.83;1.30;;;8.80;54.80;;;;;;20630169;28;20081;-42
2023/02/03 18:53:58;;;;;;;4.45;2.28;;;8.90;87.90;;;;;;20618842;28;20173;-42
2023/02/03 19:04:02;;;;;;;10.25;2.88;;;8.90;99.60;;;;;;20619959;28;20754;-42
2023/02/03 19:14:03;;;;;;;6.78;2.38;;;9.00;99.90;;;;;;20618430;28;20073;-43
2023/02/03 19:24:04;;;;;;;4.57;2.08;;;8.90;99.90;;;;;;20620710;28;20126;-43
2023/02/03 19:34:05;;;;;;;5.38;2.10;;;8.80;99.90;;;;;;20618884;28;20447;-43
2023/02/03 19:44:06;;;;;;;5.82;1.90;;;9.00;99.90;;;;;;20628641;28;20049;-42
2023/02/03 19:54:11;;;;;;;4.07;1.52;;;9.00;99.90;;;;;;20621571;28;20451;-43
2023/02/03 20:04:12;;;;;;;4.97;1.10;;;8.80;99.90;;;;;;20624270;28;20520;-42
2023/02/03 20:14:15;;;;;;;5.20;2.47;;;8.90;99.90;;;;;;20622223;28;20524;-42
2023/02/03 20:24:16;;;;;;;4.88;2.20;;;8.90;92.90;;;;;;20628673;28;20085;-43
2023/02/03 20:34:17;;;;;;;5.95;3.13;;;8.90;81.30;;;;;;20639393;28;20034;-43
2023/02/03 20:44:18;;;;;;;9.32;2.63;;;8.80;67.70;;;;;;20641587;28;20082;-43
2023/02/03 20:54:20;;;;;;;4.82;1.52;;;8.80;62.10;;;;;;20630881;28;20061;-43
2023/02/03 21:14:43;;;;;;;6.45;2.13;;;8.70;34.50;;;;;;20629916;28;20136;-43
2023/02/03 21:24:48;;;;;;;7.15;3.20;;;8.80;25.10;;;;;;20640788;28;20062;-42
2023/02/03 21:34:50;;;;;;;18.90;1.63;;;8.70;28.30;;;;;;20642767;28;20623;-42
2023/02/03 21:44:52;;;;;;;3.50;1.48;;;8.70;27.30;;;;;;20636841;28;20228;-42
2023/02/03 21:54:53;;;;;;;4.85;2.80;;;8.70;27.00;;;;;;20647370;28;20038;-42
2023/02/03 22:04:55;;;;;;;2.90;1.05;;;8.60;35.90;;;;;;20631377;28;20046;-42
2023/02/03 22:14:56;;;;;;;4.60;1.90;;;8.60;43.70;;;;;;20631881;28;20080;-42
2023/02/03 22:24:57;;;;;;;4.45;1.42;;;8.60;44.40;;;;;;20621111;28;20085;-42
2023/02/03 22:34:58;;;;;;;12.05;1.95;;;8.50;64.60;;;;;;20622698;28;20813;-43
2023/02/03 22:44:59;;;;;;;5.40;2.05;;;8.50;84.00;;;;;;20631939;28;20690;-42
2023/02/03 22:55:00;;;;;;;4.90;2.00;;;8.40;99.90;;;;;;20646077;28;20045;-43
2023/02/03 23:05:01;;;;;;;4.43;2.17;;;8.30;99.90;;;;;;20647655;28;20104;-42
2023/02/03 23:15:03;;;;;;;6.25;1.65;;;8.40;99.90;;;;;;20642792;28;20306;-42
2023/02/03 23:25:05;;;;;;;6.45;2.22;;;8.30;99.90;;;;;;20638625;28;20039;-42
2023/02/03 23:45:26;;;;;;;10.05;3.13;;;8.20;99.90;;;;;;20554899;28;20050;-42
2023/02/03 23:55:27;;;;;;;14.70;2.60;;;8.20;99.90;;;;;;20545345;28;20510;-43
